Aeroporto :
LOGIN :

Iscrizione | Disclaimer

   EN    FR    IT 

 










Sommario :    VFR   VFR Marginale   IFR   IFR Intensivo   IFR Molto Intensivo
Visibilità : 
Base nubi : 
>= 8 km
>= 3000ft
5 / 8 km
1000 / 3000 ft
1500m / 5 km
500 / 1000 ft
800 / 1500m
200 / 500 ft
< 800m
< 200 ft
Simboli :   Temporali  Nebbia  Neve Forte  Precipitazioni Forti  Vento > 20 kt
SIGMETs :   Varie  Temporali  Ghiacco  Turbolenza  Onda orograficha  Ceneri Vulcaniche






- Altitudine del aeroporto : 580 ft


LFOA - Avord

ULTIMO METAR :
  • 150300Z AUTO 20007KT 9999 BKN005 BKN050 OVC070 13/12 Q1008

METARs OBSOLETI :
  • 150230Z AUTO 18005KT 9999 -DZ FEW004/// BKN072/// BKN098/// ///TCU 13/12 Q1008
  • 150200Z AUTO 18005KT 9999 -RA SCT006/// SCT038/// OVC100/// ///CB 13/12 Q1007
  • 150130Z AUTO 15006KT 120V180 9999 -RA ///TCU 13/13 Q1007
  • 150100Z AUTO 16006KT 8000 RA ///TCU 13/13 Q1008
  • 150030Z AUTO 14008KT 9999 -RA ///CB 13/13 Q1008

TAF TAF LFOA
Valido dal 14 a 21 ore il 15 a 21 ore UTC


142000Z 1421/1521 24012KT 4000 -RA BKN014 BKN050TCU
TEMPO 1421/1422 VRB30G55KT 1200 TSRAGR BKN012 OVC050CB
TEMPO 1500/1511 2000 RADZ BKN004 OVC015
BECMG 1511/1513 8000 NSW SCT020TCU
TEMPO 1513/1521 24015G25KT 4000 -SHRA BKN020TCU



MetMap, La meteo Aeronautica in un colpo d'occhio ! - Copyright ORBIFLY Dicembre 2007 - Disclaimer

ORBIFLY MET'MAP TEAM :

Programmazione e sviluppo : Alexandra Zaïnal
Concezione e sviluppo : Baudouin d'Aumeries
Co-Programmazione e sviluppo : Marc-Olivier Méhu
Supporto tecnico e logistico : Manuel Goepfert
Aiuto per la traduzione : Arnaldo La Scala

Contatto : metmap@orbifly.com




FONTI E CREDITI :

   NOAA